createdAt,value
2018-07-30T00:01:28.575Z,16.70
2018-07-30T00:03:57.357Z,16.90
2018-07-30T00:06:26.120Z,16.17
2018-07-30T00:08:54.886Z,15.57
2018-07-30T00:11:23.667Z,15.50
2018-07-30T00:13:52.545Z,16.67
2018-07-30T00:16:21.339Z,17.10
2018-07-30T00:18:50.116Z,14.70
2018-07-30T00:21:18.899Z,15.17
2018-07-30T00:23:47.899Z,16.87
2018-07-30T00:26:16.683Z,15.27
2018-07-30T00:28:45.449Z,16.13
2018-07-30T00:31:14.231Z,15.37
2018-07-30T00:33:43.031Z,14.73
2018-07-30T00:36:11.778Z,15.63
2018-07-30T00:38:40.551Z,15.87
2018-07-30T00:41:09.414Z,15.97
2018-07-30T00:43:38.254Z,15.53
2018-07-30T00:46:07.071Z,15.07
2018-07-30T00:48:35.949Z,15.53
2018-07-30T00:51:04.811Z,15.27
2018-07-30T00:53:33.657Z,15.17
2018-07-30T00:56:02.437Z,16.20
2018-07-30T00:58:31.230Z,15.73
2018-07-30T01:00:59.978Z,16.37
2018-07-30T01:03:28.772Z,15.77
2018-07-30T01:05:57.533Z,16.57
2018-07-30T01:08:26.378Z,16.70
2018-07-30T01:10:55.261Z,16.50
2018-07-30T01:13:24.073Z,17.83
2018-07-30T01:15:52.855Z,17.40
2018-07-30T01:18:21.647Z,18.10
2018-07-30T01:20:50.439Z,17.17
2018-07-30T01:23:19.216Z,16.53
2018-07-30T01:25:48.010Z,15.93
2018-07-30T01:28:16.790Z,17.37
2018-07-30T01:30:45.562Z,17.93
2018-07-30T01:33:14.345Z,17.70
2018-07-30T01:35:43.108Z,17.40
2018-07-30T01:38:11.889Z,15.77
2018-07-30T01:40:40.657Z,17.87
2018-07-30T01:43:09.479Z,16.20
2018-07-30T01:45:38.585Z,16.27
2018-07-30T01:48:07.411Z,16.17
2018-07-30T01:50:36.200Z,16.83
2018-07-30T01:53:05.080Z,16.00
2018-07-30T01:55:33.871Z,17.33
2018-07-30T01:58:02.839Z,17.00
2018-07-30T02:00:31.657Z,16.10
2018-07-30T02:03:00.464Z,16.37
2018-07-30T02:05:29.261Z,18.00
2018-07-30T02:08:00.818Z,16.63
2018-07-30T02:10:29.686Z,17.90
2018-07-30T02:12:58.543Z,18.33
2018-07-30T02:15:28.257Z,16.07
2018-07-30T02:18:02.020Z,16.83
2018-07-30T02:20:30.790Z,17.60
2018-07-30T02:23:05.613Z,17.50
2018-07-30T02:25:34.787Z,18.53
2018-07-30T02:28:03.704Z,18.53
2018-07-30T02:30:32.602Z,17.87
2018-07-30T02:33:01.562Z,16.80
2018-07-30T02:35:30.330Z,18.13
2018-07-30T02:37:59.199Z,17.47
2018-07-30T02:40:28.008Z,18.27
2018-07-30T02:42:56.811Z,17.47
2018-07-30T02:45:26.050Z,17.87
2018-07-30T02:47:54.862Z,17.43
2018-07-30T02:50:23.690Z,17.67
2018-07-30T02:52:52.669Z,18.60
2018-07-30T02:55:21.509Z,19.13
2018-07-30T02:57:50.307Z,18.20
2018-07-30T03:00:19.165Z,18.40
2018-07-30T03:02:49.190Z,19.80
2018-07-30T03:05:18.938Z,18.20
2018-07-30T03:07:48.134Z,17.70
2018-07-30T03:10:17.017Z,18.33
2018-07-30T03:12:45.818Z,18.03
2018-07-30T03:15:14.637Z,18.20
2018-07-30T03:17:43.442Z,17.90
2018-07-30T03:20:12.685Z,18.30
2018-07-30T03:22:41.463Z,18.43
2018-07-30T03:25:10.371Z,19.33
2018-07-30T03:27:39.150Z,18.07
2018-07-30T03:30:09.548Z,17.87
2018-07-30T03:32:38.365Z,18.10
2018-07-30T03:35:07.646Z,17.80
2018-07-30T03:37:36.491Z,18.90
2018-07-30T03:40:04.811Z,16.77
2018-07-30T03:42:33.620Z,18.40
2018-07-30T03:45:02.414Z,19.97
2018-07-30T03:47:31.235Z,18.73
2018-07-30T03:50:00.103Z,19.53
2018-07-30T03:52:28.939Z,19.67
2018-07-30T03:54:57.740Z,17.60
2018-07-30T03:57:26.514Z,17.47
2018-07-30T03:59:55.266Z,18.53
2018-07-30T04:02:24.070Z,18.07
2018-07-30T04:04:53.234Z,17.23
2018-07-30T04:07:22.047Z,19.23
2018-07-30T04:09:50.979Z,18.40
2018-07-30T04:12:19.779Z,18.40
2018-07-30T04:14:48.621Z,17.97
2018-07-30T04:17:17.405Z,17.57
2018-07-30T04:19:46.181Z,17.70
2018-07-30T04:22:15.041Z,19.00
2018-07-30T04:24:44.004Z,19.27
2018-07-30T04:27:13.257Z,18.67
2018-07-30T04:29:42.037Z,19.40
2018-07-30T04:32:10.881Z,18.80
2018-07-30T04:34:39.642Z,21.00
2018-07-30T04:37:08.784Z,17.70
2018-07-30T04:39:37.598Z,19.77
2018-07-30T04:42:06.410Z,18.90
2018-07-30T04:44:35.210Z,19.47
2018-07-30T04:47:04.387Z,17.83
2018-07-30T04:49:33.177Z,17.87
2018-07-30T04:52:01.983Z,17.47
2018-07-30T04:54:30.817Z,15.97
2018-07-30T04:56:59.695Z,16.37
2018-07-30T04:59:28.695Z,16.93
2018-07-30T05:01:57.481Z,19.57
2018-07-30T05:04:26.264Z,18.37
2018-07-30T05:06:55.039Z,16.07
2018-07-30T05:09:23.863Z,17.63
2018-07-30T05:11:53.032Z,18.97
2018-07-30T05:14:21.830Z,20.30
2018-07-30T05:16:50.654Z,18.40
2018-07-30T05:19:19.461Z,18.50
2018-07-30T05:21:48.470Z,16.37
2018-07-30T05:24:17.248Z,17.07
2018-07-30T05:26:46.018Z,18.20
2018-07-30T05:29:14.908Z,16.90
2018-07-30T05:31:43.748Z,16.43
2018-07-30T05:34:12.702Z,18.03
2018-07-30T05:36:41.543Z,17.33
2018-07-30T05:39:11.695Z,17.60
2018-07-30T05:41:40.857Z,15.90
2018-07-30T05:44:09.803Z,16.83
2018-07-30T05:46:38.678Z,17.33
2018-07-30T05:49:07.484Z,17.47
2018-07-30T05:51:36.446Z,17.27
2018-07-30T05:54:05.377Z,16.93
2018-07-30T05:56:34.222Z,15.80
2018-07-30T05:59:03.061Z,16.07
2018-07-30T06:01:31.855Z,16.83
2018-07-30T06:04:00.690Z,16.40
2018-07-30T06:06:29.481Z,15.70
2018-07-30T06:08:58.277Z,16.23
2018-07-30T06:11:27.105Z,16.33
2018-07-30T06:13:56.092Z,16.83
2018-07-30T06:16:25.004Z,16.73
2018-07-30T06:18:53.769Z,17.33
2018-07-30T06:21:23.155Z,16.47
2018-07-30T06:23:51.957Z,17.63
2018-07-30T06:26:20.728Z,17.30
2018-07-30T06:28:50.501Z,16.73
2018-07-30T06:31:19.411Z,18.37
2018-07-30T06:33:48.273Z,17.23
2018-07-30T06:36:17.098Z,18.07
2018-07-30T06:38:45.891Z,17.17
2018-07-30T06:41:14.758Z,17.73
2018-07-30T06:43:43.586Z,16.60
2018-07-30T06:46:12.537Z,16.80
2018-07-30T06:48:41.286Z,16.33
2018-07-30T06:51:10.062Z,18.07
2018-07-30T06:53:45.134Z,16.87
2018-07-30T06:56:14.008Z,16.40
2018-07-30T06:58:42.859Z,15.57
2018-07-30T07:01:11.639Z,16.33
2018-07-30T07:03:40.466Z,17.17
2018-07-30T07:06:09.326Z,16.97
2018-07-30T07:08:38.166Z,17.67
2018-07-30T07:11:07.122Z,18.80
2018-07-30T07:13:35.992Z,18.57
2018-07-30T07:16:05.254Z,19.00
2018-07-30T07:18:34.094Z,19.17
2018-07-30T07:21:02.963Z,17.43
2018-07-30T07:23:31.843Z,16.67
2018-07-30T07:26:00.643Z,17.07
2018-07-30T07:28:29.597Z,18.20
2018-07-30T07:30:58.412Z,16.60
2018-07-30T07:33:27.315Z,19.10
2018-07-30T07:35:56.110Z,18.63
2018-07-30T07:38:25.068Z,18.70
2018-07-30T07:40:53.970Z,19.00
2018-07-30T07:43:22.762Z,17.20
2018-07-30T07:45:51.597Z,18.30
2018-07-30T07:48:20.390Z,18.43
2018-07-30T07:50:49.878Z,18.70
2018-07-30T07:53:18.638Z,18.53
2018-07-30T07:55:47.526Z,18.30
2018-07-30T07:58:16.372Z,18.27
2018-07-30T08:00:45.311Z,19.10
2018-07-30T08:03:14.192Z,18.37
2018-07-30T08:05:43.071Z,18.63
2018-07-30T08:08:11.996Z,18.33
2018-07-30T08:10:41.161Z,16.77
2018-07-30T08:13:09.946Z,17.97
2018-07-30T08:15:39.259Z,19.10
2018-07-30T08:18:08.202Z,16.47
2018-07-30T08:20:37.031Z,18.77
2018-07-30T08:23:06.329Z,18.17
2018-07-30T08:25:35.183Z,17.57
2018-07-30T08:28:04.303Z,16.27
2018-07-30T08:30:33.281Z,18.90
2018-07-30T08:33:02.164Z,18.97
2018-07-30T08:35:31.111Z,18.83
2018-07-30T08:37:59.989Z,15.80
2018-07-30T08:40:28.996Z,16.17
2018-07-30T08:42:58.281Z,17.33
2018-07-30T08:45:27.143Z,14.43
2018-07-30T08:47:55.965Z,17.37
2018-07-30T08:50:24.805Z,14.23
2018-07-30T08:52:53.584Z,13.43
2018-07-30T08:55:22.741Z,13.77
2018-07-30T08:57:51.543Z,12.87
2018-07-30T09:00:21.142Z,13.83
2018-07-30T09:02:50.002Z,16.73
2018-07-30T09:05:18.854Z,14.33
2018-07-30T09:07:47.680Z,13.13
2018-07-30T09:10:16.506Z,14.10
2018-07-30T09:12:45.470Z,14.13
2018-07-30T09:15:14.302Z,13.77
2018-07-30T09:17:43.063Z,13.03
2018-07-30T09:20:12.197Z,13.50
2018-07-30T09:22:41.405Z,13.53
2018-07-30T09:25:10.255Z,12.50
2018-07-30T09:27:39.046Z,11.17
2018-07-30T09:30:08.042Z,12.50
2018-07-30T09:32:36.977Z,12.80
2018-07-30T09:35:06.203Z,12.00
2018-07-30T09:37:35.068Z,12.30
2018-07-30T09:40:04.116Z,11.63
2018-07-30T09:42:32.988Z,12.47
2018-07-30T09:45:01.762Z,13.90
2018-07-30T09:47:30.659Z,12.50
2018-07-30T09:49:59.468Z,12.23
2018-07-30T09:52:28.264Z,12.43
2018-07-30T09:54:57.232Z,13.40
2018-07-30T09:57:25.993Z,12.50
2018-07-30T09:59:54.830Z,13.23
2018-07-30T10:02:23.726Z,11.60
2018-07-30T10:04:52.521Z,11.40
2018-07-30T10:07:21.423Z,11.70
2018-07-30T10:09:50.413Z,11.33
2018-07-30T10:12:19.225Z,10.40
2018-07-30T10:14:47.972Z,12.30
2018-07-30T10:17:16.725Z,12.17
2018-07-30T10:19:45.537Z,11.73
2018-07-30T10:22:14.966Z,11.33
2018-07-30T10:24:43.818Z,11.00
2018-07-30T10:27:12.629Z,13.23
2018-07-30T10:29:41.467Z,13.50
2018-07-30T10:32:10.250Z,13.13
2018-07-30T10:34:39.062Z,13.40
2018-07-30T10:37:07.912Z,13.97
2018-07-30T10:39:36.741Z,13.50
2018-07-30T10:42:05.548Z,13.13
2018-07-30T10:44:34.403Z,13.53
2018-07-30T10:47:03.307Z,12.27
2018-07-30T10:49:32.553Z,12.53
2018-07-30T10:52:01.754Z,10.73
2018-07-30T10:54:30.748Z,9.63
2018-07-30T10:56:59.534Z,10.37
2018-07-30T10:59:28.334Z,9.63
2018-07-30T11:01:57.181Z,8.67
2018-07-30T11:04:25.991Z,9.37
2018-07-30T11:06:54.766Z,9.33
2018-07-30T11:09:23.519Z,10.27
2018-07-30T11:11:52.487Z,9.37
2018-07-30T11:14:21.296Z,9.03
2018-07-30T11:16:50.689Z,9.27
2018-07-30T11:19:19.566Z,8.87
2018-07-30T11:21:48.394Z,9.13
2018-07-30T11:24:17.386Z,8.50
2018-07-30T11:26:46.243Z,8.80
2018-07-30T11:29:15.086Z,8.70
2018-07-30T11:31:43.884Z,9.43
2018-07-30T11:34:12.686Z,9.60
2018-07-30T11:36:41.843Z,11.17
2018-07-30T11:39:12.028Z,11.83
2018-07-30T11:41:40.866Z,11.50
2018-07-30T11:44:10.121Z,10.97
2018-07-30T11:46:38.937Z,12.03
2018-07-30T11:49:07.764Z,11.33
2018-07-30T11:51:36.756Z,9.57
2018-07-30T11:54:05.639Z,8.00
2018-07-30T11:56:34.581Z,8.67
2018-07-30T11:59:03.369Z,9.43
2018-07-30T12:01:32.175Z,8.47
2018-07-30T12:04:00.968Z,11.00
2018-07-30T12:06:29.796Z,7.40
2018-07-30T12:08:58.682Z,7.87
2018-07-30T12:11:27.474Z,8.40
2018-07-30T12:13:58.069Z,7.60
2018-07-30T12:16:26.873Z,8.07
2018-07-30T12:18:55.686Z,7.00
2018-07-30T12:21:24.477Z,7.90
2018-07-30T12:23:53.339Z,7.77
2018-07-30T12:26:22.137Z,8.77
2018-07-30T12:28:50.942Z,8.00
2018-07-30T12:31:19.746Z,8.20
2018-07-30T12:33:48.593Z,8.07
2018-07-30T12:36:17.474Z,8.70
2018-07-30T12:38:46.487Z,7.67
2018-07-30T12:41:15.533Z,8.90
2018-07-30T12:43:44.345Z,8.30
2018-07-30T12:46:13.153Z,8.87
2018-07-30T12:48:42.040Z,8.67
2018-07-30T12:51:11.060Z,9.00
2018-07-30T12:53:39.894Z,10.47
2018-07-30T12:56:08.712Z,9.07
2018-07-30T12:58:37.520Z,9.07
2018-07-30T13:01:07.088Z,10.87
2018-07-30T13:03:36.064Z,13.30
2018-07-30T13:06:04.897Z,12.60
2018-07-30T13:08:34.597Z,8.37
2018-07-30T13:11:03.409Z,8.37
2018-07-30T13:13:32.177Z,8.50
2018-07-30T13:16:01.019Z,8.20
2018-07-30T13:18:29.792Z,8.63
2018-07-30T13:20:58.617Z,8.23
2018-07-30T13:23:27.723Z,9.20
2018-07-30T13:25:56.601Z,7.93
2018-07-30T13:28:25.414Z,9.10
2018-07-30T13:30:54.263Z,8.30
2018-07-30T13:33:24.032Z,11.80
2018-07-30T13:35:52.890Z,8.73
2018-07-30T13:38:21.638Z,9.37
2018-07-30T13:40:50.549Z,9.50
2018-07-30T13:43:19.742Z,9.13
2018-07-30T13:45:48.666Z,9.27
2018-07-30T13:48:17.437Z,9.33
2018-07-30T13:50:46.255Z,9.73
2018-07-30T13:53:15.080Z,10.20
2018-07-30T13:55:43.876Z,10.40
2018-07-30T13:58:12.711Z,9.80
2018-07-30T14:00:41.552Z,10.00
2018-07-30T14:03:10.362Z,10.03
2018-07-30T14:05:39.215Z,10.57
2018-07-30T14:08:07.989Z,10.03
2018-07-30T14:10:36.777Z,10.10
2018-07-30T14:13:05.861Z,9.70
2018-07-30T14:15:34.695Z,10.03
2018-07-30T14:18:03.583Z,9.60
2018-07-30T14:20:32.529Z,9.20
2018-07-30T14:23:01.325Z,10.57
2018-07-30T14:25:30.106Z,9.07
2018-07-30T14:27:58.916Z,9.97
2018-07-30T14:30:27.710Z,9.37
2018-07-30T14:32:56.512Z,8.77
2018-07-30T14:35:25.496Z,9.07
2018-07-30T14:37:54.270Z,8.90
2018-07-30T14:40:23.161Z,8.57
2018-07-30T14:42:52.038Z,8.43
2018-07-30T14:45:20.806Z,9.40
2018-07-30T14:47:49.581Z,9.23
2018-07-30T14:50:18.400Z,9.50
2018-07-30T14:52:47.211Z,9.83
2018-07-30T14:55:16.167Z,8.60
2018-07-30T14:57:45.081Z,9.17
2018-07-30T15:00:13.905Z,8.70
2018-07-30T15:02:45.893Z,11.93
2018-07-30T15:05:19.191Z,10.30
2018-07-30T15:07:48.190Z,9.10
2018-07-30T15:10:18.157Z,10.43
2018-07-30T15:12:47.185Z,10.30
2018-07-30T15:15:16.776Z,9.03
2018-07-30T15:17:45.577Z,8.27
2018-07-30T15:20:14.449Z,9.73
2018-07-30T15:22:44.470Z,10.17
2018-07-30T15:25:13.342Z,10.63
2018-07-30T15:27:44.275Z,12.17
2018-07-30T15:30:14.370Z,11.37
2018-07-30T15:32:43.172Z,10.37
2018-07-30T15:35:11.986Z,9.43
2018-07-30T15:37:40.871Z,9.00
2018-07-30T15:40:09.784Z,8.87
2018-07-30T15:42:38.682Z,9.10
2018-07-30T15:45:07.503Z,9.00
2018-07-30T15:47:36.321Z,7.87
2018-07-30T15:50:05.785Z,7.50
2018-07-30T15:52:34.625Z,6.30
2018-07-30T15:55:04.080Z,5.40
2018-07-30T15:57:33.955Z,5.20
2018-07-30T16:02:33.925Z,5.40
2018-07-30T16:07:31.972Z,10.00
2018-07-30T16:10:00.780Z,7.67
2018-07-30T16:12:29.794Z,6.73
2018-07-30T16:14:58.633Z,5.70
2018-07-30T16:17:27.418Z,5.70
2018-07-30T16:19:56.331Z,6.83
2018-07-30T16:22:25.105Z,7.87
2018-07-30T16:24:54.221Z,10.40
2018-07-30T16:27:23.032Z,9.27
2018-07-30T16:29:51.789Z,12.77
2018-07-30T16:32:20.698Z,11.07
2018-07-30T16:34:49.463Z,9.43
2018-07-30T16:37:18.280Z,11.67
2018-07-30T16:39:47.389Z,10.30
2018-07-30T16:42:17.015Z,8.10
2018-07-30T16:44:46.158Z,5.90
2018-07-30T16:47:14.988Z,5.87
2018-07-30T16:49:43.783Z,6.10
2018-07-30T16:52:12.900Z,5.00
2018-07-30T16:54:41.809Z,5.57
2018-07-30T16:57:10.830Z,5.27
2018-07-30T16:59:40.197Z,5.40
2018-07-30T17:02:09.193Z,5.60
2018-07-30T17:04:38.315Z,5.80
2018-07-30T17:07:07.098Z,5.77
2018-07-30T17:09:36.021Z,5.37
2018-07-30T17:12:05.297Z,5.20
2018-07-30T17:14:34.149Z,5.67
2018-07-30T17:17:03.071Z,5.80
2018-07-30T17:19:32.042Z,6.23
2018-07-30T17:22:01.028Z,6.00
2018-07-30T17:24:32.326Z,5.17
2018-07-30T17:27:01.435Z,5.30
2018-07-30T17:29:30.369Z,4.90
2018-07-30T17:31:59.634Z,4.60
2018-07-30T17:34:28.495Z,5.77
2018-07-30T17:36:57.375Z,6.00
2018-07-30T17:39:26.299Z,5.20
2018-07-30T17:41:55.450Z,6.93
2018-07-30T17:44:24.446Z,7.67
2018-07-30T17:46:53.428Z,9.37
2018-07-30T17:49:22.857Z,8.10
2018-07-30T17:51:52.167Z,7.33
2018-07-30T17:54:21.065Z,7.40
2018-07-30T17:56:50.858Z,7.27
2018-07-30T17:59:20.367Z,7.90
2018-07-30T18:01:49.565Z,7.73
2018-07-30T18:04:19.282Z,10.10
2018-07-30T18:06:48.323Z,9.33
2018-07-30T18:09:17.338Z,10.43
2018-07-30T18:11:46.232Z,9.90
2018-07-30T18:14:15.093Z,9.47
2018-07-30T18:16:44.481Z,9.27
2018-07-30T18:19:13.353Z,9.60
2018-07-30T18:21:42.238Z,9.17
2018-07-30T18:24:11.401Z,11.00
2018-07-30T18:26:40.618Z,10.07
2018-07-30T18:29:09.679Z,8.53
2018-07-30T18:31:38.492Z,6.83
2018-07-30T18:34:08.175Z,7.23
2018-07-30T18:36:37.339Z,8.30
2018-07-30T18:39:07.402Z,8.73
2018-07-30T18:41:36.432Z,8.60
2018-07-30T18:44:05.276Z,9.40
2018-07-30T18:46:34.247Z,8.40
2018-07-30T18:49:03.225Z,9.37
2018-07-30T18:51:32.173Z,8.97
2018-07-30T18:54:01.144Z,10.30
2018-07-30T18:56:30.057Z,10.27
2018-07-30T18:58:59.223Z,10.03
2018-07-30T19:01:29.654Z,9.87
2018-07-30T19:03:59.398Z,9.57
2018-07-30T19:06:28.634Z,10.53
2018-07-30T19:08:58.251Z,9.57
2018-07-30T19:11:27.713Z,11.77
2018-07-30T19:13:56.814Z,14.03
2018-07-30T19:16:27.047Z,15.13
2018-07-30T19:18:57.031Z,11.20
2018-07-30T19:21:27.116Z,13.07
2018-07-30T19:23:56.074Z,11.10
2018-07-30T19:26:25.154Z,11.77
2018-07-30T19:28:54.616Z,13.63
2018-07-30T19:31:24.223Z,9.87
2018-07-30T19:33:53.105Z,13.43
2018-07-30T19:36:21.981Z,10.33
2018-07-30T19:38:51.156Z,10.70
2018-07-30T19:41:21.847Z,12.97
2018-07-30T19:43:50.697Z,12.03
2018-07-30T19:46:19.505Z,14.23
2018-07-30T19:48:48.336Z,11.10
2018-07-30T19:51:17.136Z,13.00
2018-07-30T19:53:45.999Z,11.27
2018-07-30T19:56:14.961Z,10.50
2018-07-30T19:58:44.117Z,12.50
2018-07-30T20:01:12.877Z,11.93
2018-07-30T20:03:41.764Z,14.40
2018-07-30T20:06:10.748Z,13.70
2018-07-30T20:08:39.527Z,14.57
2018-07-30T20:11:09.205Z,14.67
2018-07-30T20:13:38.263Z,13.53
2018-07-30T20:16:07.268Z,31.40
2018-07-30T20:18:36.357Z,17.83
2018-07-30T20:21:05.205Z,27.47
2018-07-30T20:23:34.050Z,17.70
2018-07-30T20:26:02.929Z,15.43
2018-07-30T20:28:31.714Z,13.50
2018-07-30T20:31:00.642Z,11.90
2018-07-30T20:33:29.715Z,13.00
2018-07-30T20:35:59.056Z,15.30
2018-07-30T20:38:27.851Z,20.87
2018-07-30T20:40:56.667Z,22.10
2018-07-30T20:43:25.575Z,17.63
2018-07-30T20:45:54.472Z,14.93
2018-07-30T20:48:23.297Z,12.43
2018-07-30T20:50:52.082Z,12.53
2018-07-30T20:53:21.256Z,11.00
2018-07-30T20:55:50.094Z,10.63
2018-07-30T20:58:18.975Z,10.33
2018-07-30T21:00:47.758Z,10.00
2018-07-30T21:03:16.516Z,10.13
2018-07-30T21:05:45.270Z,9.37
2018-07-30T21:08:15.589Z,9.87
2018-07-30T21:10:45.773Z,10.17
2018-07-30T21:13:16.016Z,8.60
2018-07-30T21:15:45.160Z,10.00
2018-07-30T21:18:13.889Z,9.00
2018-07-30T21:20:43.126Z,8.70
2018-07-30T21:23:11.898Z,10.13
2018-07-30T21:25:40.686Z,9.70
2018-07-30T21:28:09.465Z,9.30
2018-07-30T21:30:38.353Z,8.77
2018-07-30T21:33:07.136Z,9.70
2018-07-30T21:35:35.928Z,9.57
2018-07-30T21:38:06.473Z,9.67
2018-07-30T21:40:35.238Z,8.70
2018-07-30T21:43:04.141Z,8.43
2018-07-30T21:45:33.019Z,8.00
2018-07-30T21:48:01.836Z,8.33
2018-07-30T21:50:30.617Z,9.17
2018-07-30T21:52:59.493Z,9.27
2018-07-30T21:55:28.299Z,9.37
2018-07-30T21:57:57.177Z,9.17
2018-07-30T22:00:27.437Z,9.00
2018-07-30T22:02:57.142Z,7.83
2018-07-30T22:05:26.374Z,8.10
2018-07-30T22:07:55.231Z,8.53
2018-07-30T22:10:25.433Z,8.13
2018-07-30T22:12:55.340Z,8.20
2018-07-30T22:15:24.646Z,8.53
2018-07-30T22:17:53.485Z,8.37
2018-07-30T22:20:22.304Z,8.47
2018-07-30T22:22:51.263Z,8.40
2018-07-30T22:25:20.050Z,9.43
2018-07-30T22:27:48.878Z,9.30
2018-07-30T22:30:17.710Z,8.70
2018-07-30T22:32:46.519Z,8.13
2018-07-30T22:35:15.741Z,7.23
2018-07-30T22:37:44.551Z,7.50
2018-07-30T22:40:13.354Z,7.93
2018-07-30T22:42:42.247Z,9.37
2018-07-30T22:45:11.014Z,7.93
2018-07-30T22:47:39.922Z,7.83
2018-07-30T22:50:08.729Z,8.40
2018-07-30T22:52:37.704Z,7.97
2018-07-30T22:55:07.034Z,7.43
2018-07-30T22:57:35.820Z,7.37
2018-07-30T23:00:08.903Z,8.90
2018-07-30T23:02:37.827Z,7.90
2018-07-30T23:05:07.171Z,7.67
2018-07-30T23:07:36.030Z,7.37
2018-07-30T23:10:03.785Z,7.73
2018-07-30T23:12:32.782Z,7.70
2018-07-30T23:15:01.571Z,8.13
2018-07-30T23:17:30.591Z,8.47
2018-07-30T23:19:59.382Z,7.77
2018-07-30T23:22:28.225Z,7.83
2018-07-30T23:24:57.014Z,7.67
2018-07-30T23:27:25.867Z,7.40
2018-07-30T23:29:54.638Z,7.97
2018-07-30T23:32:23.560Z,7.33
2018-07-30T23:34:52.374Z,8.80
2018-07-30T23:37:21.157Z,7.53
2018-07-30T23:39:50.161Z,8.17
2018-07-30T23:42:19.014Z,7.90
2018-07-30T23:44:48.002Z,7.87
2018-07-30T23:47:16.809Z,8.43
2018-07-30T23:49:45.632Z,8.80
2018-07-30T23:52:14.483Z,8.00
2018-07-30T23:54:43.355Z,8.00
2018-07-30T23:57:12.201Z,7.77
2018-07-30T23:59:41.034Z,7.57
